sensor_id;sensor_type;location;lat;lon;timestamp;temperature;humidity
75262;DHT22;63859;51.064;4.580;2023-01-25T00:01:50;2.00;99.90
75262;DHT22;63859;51.064;4.580;2023-01-25T00:04:16;2.00;99.90
75262;DHT22;63859;51.064;4.580;2023-01-25T00:06:41;2.00;99.90
75262;DHT22;63859;51.064;4.580;2023-01-25T00:09:11;2.00;99.90
75262;DHT22;63859;51.064;4.580;2023-01-25T00:11:37;2.00;99.90
75262;DHT22;63859;51.064;4.580;2023-01-25T00:14:04;2.00;99.90
75262;DHT22;63859;51.064;4.580;2023-01-25T00:16:30;1.90;99.90
75262;DHT22;63859;51.064;4.580;2023-01-25T00:18:55;2.00;99.90
75262;DHT22;63859;51.064;4.580;2023-01-25T00:21:23;2.00;99.90
75262;DHT22;63859;51.064;4.580;2023-01-25T00:23:49;2.00;99.90
75262;DHT22;63859;51.064;4.580;2023-01-25T00:26:16;2.00;99.90
75262;DHT22;63859;51.064;4.580;2023-01-25T00:28:42;2.00;99.90
75262;DHT22;63859;51.064;4.580;2023-01-25T00:31:12;2.00;99.90
75262;DHT22;63859;51.064;4.580;2023-01-25T00:33:48;2.00;99.90
75262;DHT22;63859;51.064;4.580;2023-01-25T00:36:39;2.00;99.90
75262;DHT22;63859;51.064;4.580;2023-01-25T00:39:07;2.00;99.90
75262;DHT22;63859;51.064;4.580;2023-01-25T00:41:34;1.90;99.90
75262;DHT22;63859;51.064;4.580;2023-01-25T00:44:00;1.90;99.90
75262;DHT22;63859;51.064;4.580;2023-01-25T00:46:26;1.90;99.90
75262;DHT22;63859;51.064;4.580;2023-01-25T00:48:55;1.90;99.90
75262;DHT22;63859;51.064;4.580;2023-01-25T00:51:22;1.90;99.90
75262;DHT22;63859;51.064;4.580;2023-01-25T00:53:48;2.00;99.90
75262;DHT22;63859;51.064;4.580;2023-01-25T00:56:13;1.80;99.90
75262;DHT22;63859;51.064;4.580;2023-01-25T00:58:42;1.80;99.90
75262;DHT22;63859;51.064;4.580;2023-01-25T01:01:08;1.70;99.90
75262;DHT22;63859;51.064;4.580;2023-01-25T01:03:34;1.80;99.90
75262;DHT22;63859;51.064;4.580;2023-01-25T01:06:06;1.80;99.90
75262;DHT22;63859;51.064;4.580;2023-01-25T01:08:33;1.80;99.90
75262;DHT22;63859;51.064;4.580;2023-01-25T01:11:03;1.90;99.90
75262;DHT22;63859;51.064;4.580;2023-01-25T01:13:29;1.90;99.90
75262;DHT22;63859;51.064;4.580;2023-01-25T01:15:56;1.90;99.90
75262;DHT22;63859;51.064;4.580;2023-01-25T01:18:21;1.80;99.90
75262;DHT22;63859;51.064;4.580;2023-01-25T01:20:51;1.80;99.90
75262;DHT22;63859;51.064;4.580;2023-01-25T01:23:18;1.90;99.90
75262;DHT22;63859;51.064;4.580;2023-01-25T01:25:44;1.90;99.90
75262;DHT22;63859;51.064;4.580;2023-01-25T01:28:10;1.90;99.90
75262;DHT22;63859;51.064;4.580;2023-01-25T01:30:37;2.00;99.90
75262;DHT22;63859;51.064;4.580;2023-01-25T01:33:02;2.00;99.90
75262;DHT22;63859;51.064;4.580;2023-01-25T01:35:29;2.00;99.90
75262;DHT22;63859;51.064;4.580;2023-01-25T01:37:55;2.00;99.90
75262;DHT22;63859;51.064;4.580;2023-01-25T01:40:20;2.00;99.90
75262;DHT22;63859;51.064;4.580;2023-01-25T01:43:06;2.00;99.90
75262;DHT22;63859;51.064;4.580;2023-01-25T01:53:45;1.90;99.90
75262;DHT22;63859;51.064;4.580;2023-01-25T01:56:17;1.90;99.90
75262;DHT22;63859;51.064;4.580;2023-01-25T01:58:46;1.80;99.90
75262;DHT22;63859;51.064;4.580;2023-01-25T02:01:12;1.80;99.90
75262;DHT22;63859;51.064;4.580;2023-01-25T02:03:39;1.80;99.90
75262;DHT22;63859;51.064;4.580;2023-01-25T02:06:23;1.80;99.90
75262;DHT22;63859;51.064;4.580;2023-01-25T02:08:51;1.70;99.90
75262;DHT22;63859;51.064;4.580;2023-01-25T02:11:19;1.80;99.90
75262;DHT22;63859;51.064;4.580;2023-01-25T02:13:45;1.80;99.90
75262;DHT22;63859;51.064;4.580;2023-01-25T02:16:16;1.80;99.90
75262;DHT22;63859;51.064;4.580;2023-01-25T02:18:43;1.80;99.90
75262;DHT22;63859;51.064;4.580;2023-01-25T02:21:09;1.80;99.90
75262;DHT22;63859;51.064;4.580;2023-01-25T02:23:41;1.80;99.90
75262;DHT22;63859;51.064;4.580;2023-01-25T02:26:12;1.80;99.90
75262;DHT22;63859;51.064;4.580;2023-01-25T02:28:38;1.70;99.90
75262;DHT22;63859;51.064;4.580;2023-01-25T02:31:06;1.80;99.90
75262;DHT22;63859;51.064;4.580;2023-01-25T02:33:31;1.70;99.90
75262;DHT22;63859;51.064;4.580;2023-01-25T02:38:38;1.70;99.90
75262;DHT22;63859;51.064;4.580;2023-01-25T02:41:15;1.60;99.90
75262;DHT22;63859;51.064;4.580;2023-01-25T02:43:42;1.70;99.90
75262;DHT22;63859;51.064;4.580;2023-01-25T02:46:15;1.60;99.90
75262;DHT22;63859;51.064;4.580;2023-01-25T02:48:42;1.60;99.90
75262;DHT22;63859;51.064;4.580;2023-01-25T02:51:08;1.70;99.90
75262;DHT22;63859;51.064;4.580;2023-01-25T02:53:34;1.60;99.90
75262;DHT22;63859;51.064;4.580;2023-01-25T02:56:00;1.60;99.90
75262;DHT22;63859;51.064;4.580;2023-01-25T02:58:26;1.60;99.90
75262;DHT22;63859;51.064;4.580;2023-01-25T03:00:52;1.50;99.90
75262;DHT22;63859;51.064;4.580;2023-01-25T03:03:19;1.50;99.90
75262;DHT22;63859;51.064;4.580;2023-01-25T03:05:44;1.50;99.90
75262;DHT22;63859;51.064;4.580;2023-01-25T03:08:10;1.50;99.90
75262;DHT22;63859;51.064;4.580;2023-01-25T03:10:36;1.50;99.90
75262;DHT22;63859;51.064;4.580;2023-01-25T03:13:01;1.50;99.90
75262;DHT22;63859;51.064;4.580;2023-01-25T03:15:27;1.50;99.90
75262;DHT22;63859;51.064;4.580;2023-01-25T03:17:54;1.50;99.90
75262;DHT22;63859;51.064;4.580;2023-01-25T03:20:19;1.50;99.90
75262;DHT22;63859;51.064;4.580;2023-01-25T03:22:45;1.50;99.90
75262;DHT22;63859;51.064;4.580;2023-01-25T03:25:10;1.50;99.90
75262;DHT22;63859;51.064;4.580;2023-01-25T03:27:36;1.50;99.90
75262;DHT22;63859;51.064;4.580;2023-01-25T03:30:02;1.50;99.90
75262;DHT22;63859;51.064;4.580;2023-01-25T03:32:28;1.30;99.90
75262;DHT22;63859;51.064;4.580;2023-01-25T03:34:53;1.20;99.90
75262;DHT22;63859;51.064;4.580;2023-01-25T03:37:19;1.20;99.90
75262;DHT22;63859;51.064;4.580;2023-01-25T03:39:45;1.20;99.90
75262;DHT22;63859;51.064;4.580;2023-01-25T03:42:10;1.30;99.90
75262;DHT22;63859;51.064;4.580;2023-01-25T03:44:36;1.30;99.90
75262;DHT22;63859;51.064;4.580;2023-01-25T03:47:02;1.30;99.90
75262;DHT22;63859;51.064;4.580;2023-01-25T03:49:27;1.60;99.90
75262;DHT22;63859;51.064;4.580;2023-01-25T03:51:53;1.40;99.90
75262;DHT22;63859;51.064;4.580;2023-01-25T03:54:18;1.50;99.90
75262;DHT22;63859;51.064;4.580;2023-01-25T03:56:44;1.50;99.90
75262;DHT22;63859;51.064;4.580;2023-01-25T03:59:11;1.50;99.90
75262;DHT22;63859;51.064;4.580;2023-01-25T04:01:37;1.50;99.90
75262;DHT22;63859;51.064;4.580;2023-01-25T04:04:02;1.50;99.90
75262;DHT22;63859;51.064;4.580;2023-01-25T04:06:28;1.50;99.90
75262;DHT22;63859;51.064;4.580;2023-01-25T04:08:54;1.50;99.90
75262;DHT22;63859;51.064;4.580;2023-01-25T04:11:19;1.50;99.90
75262;DHT22;63859;51.064;4.580;2023-01-25T04:13:45;1.50;99.90
75262;DHT22;63859;51.064;4.580;2023-01-25T04:16:11;1.50;99.90
75262;DHT22;63859;51.064;4.580;2023-01-25T04:18:37;1.50;99.90
75262;DHT22;63859;51.064;4.580;2023-01-25T04:21:03;1.60;99.90
75262;DHT22;63859;51.064;4.580;2023-01-25T04:23:29;1.50;99.90
75262;DHT22;63859;51.064;4.580;2023-01-25T04:26:00;1.50;99.90
75262;DHT22;63859;51.064;4.580;2023-01-25T04:28:26;1.50;99.90
75262;DHT22;63859;51.064;4.580;2023-01-25T04:30:57;1.60;99.90
75262;DHT22;63859;51.064;4.580;2023-01-25T04:33:23;1.50;99.90
75262;DHT22;63859;51.064;4.580;2023-01-25T04:35:49;1.60;99.90
75262;DHT22;63859;51.064;4.580;2023-01-25T04:38:14;1.50;99.90
75262;DHT22;63859;51.064;4.580;2023-01-25T04:40:41;1.50;99.90
75262;DHT22;63859;51.064;4.580;2023-01-25T04:43:07;1.50;99.90
75262;DHT22;63859;51.064;4.580;2023-01-25T04:45:33;1.40;99.90
75262;DHT22;63859;51.064;4.580;2023-01-25T04:48:03;1.40;99.90
75262;DHT22;63859;51.064;4.580;2023-01-25T04:50:29;1.40;99.90
75262;DHT22;63859;51.064;4.580;2023-01-25T04:52:55;1.30;99.90
75262;DHT22;63859;51.064;4.580;2023-01-25T04:55:20;1.30;99.90
75262;DHT22;63859;51.064;4.580;2023-01-25T04:57:49;1.20;99.90
75262;DHT22;63859;51.064;4.580;2023-01-25T05:00:16;1.30;99.90
75262;DHT22;63859;51.064;4.580;2023-01-25T05:02:41;1.20;99.90
75262;DHT22;63859;51.064;4.580;2023-01-25T05:05:08;1.20;99.90
75262;DHT22;63859;51.064;4.580;2023-01-25T05:07:33;1.30;99.90
75262;DHT22;63859;51.064;4.580;2023-01-25T05:09:59;1.30;99.90
75262;DHT22;63859;51.064;4.580;2023-01-25T05:12:24;1.30;99.90
75262;DHT22;63859;51.064;4.580;2023-01-25T05:14:50;1.20;99.90
75262;DHT22;63859;51.064;4.580;2023-01-25T05:17:16;1.10;99.90
75262;DHT22;63859;51.064;4.580;2023-01-25T05:19:41;1.10;99.90
75262;DHT22;63859;51.064;4.580;2023-01-25T05:22:14;1.00;99.90
75262;DHT22;63859;51.064;4.580;2023-01-25T05:24:41;1.00;99.90
75262;DHT22;63859;51.064;4.580;2023-01-25T05:27:10;1.10;99.90
75262;DHT22;63859;51.064;4.580;2023-01-25T05:29:38;1.10;99.90
75262;DHT22;63859;51.064;4.580;2023-01-25T05:32:05;1.10;99.90
75262;DHT22;63859;51.064;4.580;2023-01-25T05:34:31;1.10;99.90
75262;DHT22;63859;51.064;4.580;2023-01-25T05:36:57;1.10;99.90
75262;DHT22;63859;51.064;4.580;2023-01-25T05:39:24;1.10;99.90
75262;DHT22;63859;51.064;4.580;2023-01-25T05:41:50;1.10;99.90
75262;DHT22;63859;51.064;4.580;2023-01-25T05:44:16;1.10;99.90
75262;DHT22;63859;51.064;4.580;2023-01-25T05:46:42;1.00;99.90
75262;DHT22;63859;51.064;4.580;2023-01-25T05:49:08;1.00;99.90
75262;DHT22;63859;51.064;4.580;2023-01-25T05:51:34;1.00;99.90
75262;DHT22;63859;51.064;4.580;2023-01-25T05:54:00;1.00;99.90
75262;DHT22;63859;51.064;4.580;2023-01-25T05:56:26;1.10;99.90
75262;DHT22;63859;51.064;4.580;2023-01-25T05:58:56;1.10;99.90
75262;DHT22;63859;51.064;4.580;2023-01-25T06:01:22;1.10;99.90
75262;DHT22;63859;51.064;4.580;2023-01-25T06:03:48;1.10;99.90
75262;DHT22;63859;51.064;4.580;2023-01-25T06:06:14;1.00;99.90
75262;DHT22;63859;51.064;4.580;2023-01-25T06:08:39;1.00;99.90
75262;DHT22;63859;51.064;4.580;2023-01-25T06:11:17;1.00;99.90
75262;DHT22;63859;51.064;4.580;2023-01-25T06:13:44;1.00;99.90
75262;DHT22;63859;51.064;4.580;2023-01-25T06:16:10;0.90;99.90
75262;DHT22;63859;51.064;4.580;2023-01-25T06:18:35;1.00;99.90
75262;DHT22;63859;51.064;4.580;2023-01-25T06:21:02;0.90;99.90
75262;DHT22;63859;51.064;4.580;2023-01-25T06:23:28;0.80;99.90
75262;DHT22;63859;51.064;4.580;2023-01-25T06:25:59;0.70;99.90
75262;DHT22;63859;51.064;4.580;2023-01-25T06:28:24;0.80;99.90
75262;DHT22;63859;51.064;4.580;2023-01-25T06:30:50;0.80;99.90
75262;DHT22;63859;51.064;4.580;2023-01-25T06:33:16;0.90;99.90
75262;DHT22;63859;51.064;4.580;2023-01-25T06:35:41;0.90;99.90
75262;DHT22;63859;51.064;4.580;2023-01-25T06:38:08;0.90;99.90
75262;DHT22;63859;51.064;4.580;2023-01-25T06:40:34;0.90;99.90
75262;DHT22;63859;51.064;4.580;2023-01-25T06:43:09;0.80;99.90
75262;DHT22;63859;51.064;4.580;2023-01-25T06:45:36;0.80;99.90
75262;DHT22;63859;51.064;4.580;2023-01-25T06:48:01;0.80;99.90
75262;DHT22;63859;51.064;4.580;2023-01-25T06:50:27;0.90;99.90
75262;DHT22;63859;51.064;4.580;2023-01-25T06:52:53;0.90;99.90
75262;DHT22;63859;51.064;4.580;2023-01-25T06:55:20;0.80;99.90
75262;DHT22;63859;51.064;4.580;2023-01-25T06:57:46;0.70;99.90
75262;DHT22;63859;51.064;4.580;2023-01-25T07:00:13;0.60;99.90
75262;DHT22;63859;51.064;4.580;2023-01-25T07:02:39;0.60;99.90
75262;DHT22;63859;51.064;4.580;2023-01-25T07:05:05;0.70;99.90
75262;DHT22;63859;51.064;4.580;2023-01-25T07:07:30;0.80;99.90
75262;DHT22;63859;51.064;4.580;2023-01-25T07:09:56;0.60;99.90
75262;DHT22;63859;51.064;4.580;2023-01-25T07:12:24;0.80;99.90
75262;DHT22;63859;51.064;4.580;2023-01-25T07:14:50;0.80;99.90
75262;DHT22;63859;51.064;4.580;2023-01-25T07:17:16;0.70;99.90
75262;DHT22;63859;51.064;4.580;2023-01-25T07:19:42;0.70;99.90
75262;DHT22;63859;51.064;4.580;2023-01-25T07:22:07;0.80;99.90
75262;DHT22;63859;51.064;4.580;2023-01-25T07:24:33;0.80;99.90
75262;DHT22;63859;51.064;4.580;2023-01-25T07:26:59;0.80;99.90
75262;DHT22;63859;51.064;4.580;2023-01-25T07:29:24;0.90;99.90
75262;DHT22;63859;51.064;4.580;2023-01-25T07:31:50;0.70;99.90
75262;DHT22;63859;51.064;4.580;2023-01-25T07:34:15;0.60;99.90
75262;DHT22;63859;51.064;4.580;2023-01-25T07:36:41;0.70;99.90
75262;DHT22;63859;51.064;4.580;2023-01-25T07:39:11;0.70;99.90
75262;DHT22;63859;51.064;4.580;2023-01-25T07:41:38;0.70;99.90
75262;DHT22;63859;51.064;4.580;2023-01-25T07:44:03;0.80;99.90
75262;DHT22;63859;51.064;4.580;2023-01-25T07:46:29;0.70;99.90
75262;DHT22;63859;51.064;4.580;2023-01-25T07:48:55;0.70;99.90
75262;DHT22;63859;51.064;4.580;2023-01-25T07:51:23;0.70;99.90
75262;DHT22;63859;51.064;4.580;2023-01-25T07:54:02;0.80;99.90
75262;DHT22;63859;51.064;4.580;2023-01-25T07:56:35;0.70;99.90
75262;DHT22;63859;51.064;4.580;2023-01-25T07:59:03;0.70;99.90
75262;DHT22;63859;51.064;4.580;2023-01-25T08:01:30;0.70;99.90
75262;DHT22;63859;51.064;4.580;2023-01-25T08:03:59;0.70;99.90
75262;DHT22;63859;51.064;4.580;2023-01-25T08:06:27;0.80;99.90
75262;DHT22;63859;51.064;4.580;2023-01-25T08:08:56;0.70;99.90
75262;DHT22;63859;51.064;4.580;2023-01-25T08:11:25;0.60;99.90
75262;DHT22;63859;51.064;4.580;2023-01-25T08:13:50;0.50;99.90
75262;DHT22;63859;51.064;4.580;2023-01-25T08:16:19;0.50;99.90
75262;DHT22;63859;51.064;4.580;2023-01-25T08:18:56;0.60;99.90
75262;DHT22;63859;51.064;4.580;2023-01-25T08:21:23;0.50;99.90
75262;DHT22;63859;51.064;4.580;2023-01-25T08:23:50;0.50;99.90
75262;DHT22;63859;51.064;4.580;2023-01-25T08:26:16;0.60;99.90
75262;DHT22;63859;51.064;4.580;2023-01-25T08:28:42;0.60;99.90
75262;DHT22;63859;51.064;4.580;2023-01-25T08:31:09;0.50;99.90
75262;DHT22;63859;51.064;4.580;2023-01-25T08:33:36;0.50;99.90
75262;DHT22;63859;51.064;4.580;2023-01-25T08:36:03;0.50;99.90
75262;DHT22;63859;51.064;4.580;2023-01-25T08:38:29;0.50;99.90
75262;DHT22;63859;51.064;4.580;2023-01-25T08:40:54;0.50;99.90
75262;DHT22;63859;51.064;4.580;2023-01-25T08:43:20;0.50;99.90
75262;DHT22;63859;51.064;4.580;2023-01-25T08:45:54;0.50;99.90
75262;DHT22;63859;51.064;4.580;2023-01-25T08:48:20;0.50;99.90
75262;DHT22;63859;51.064;4.580;2023-01-25T08:50:46;0.50;99.90
75262;DHT22;63859;51.064;4.580;2023-01-25T08:53:12;0.50;99.90
75262;DHT22;63859;51.064;4.580;2023-01-25T08:55:37;0.50;99.90
75262;DHT22;63859;51.064;4.580;2023-01-25T08:58:04;0.50;99.90
75262;DHT22;63859;51.064;4.580;2023-01-25T09:00:38;0.50;99.90
75262;DHT22;63859;51.064;4.580;2023-01-25T09:03:04;0.50;99.90
75262;DHT22;63859;51.064;4.580;2023-01-25T09:05:32;0.50;99.90
75262;DHT22;63859;51.064;4.580;2023-01-25T09:07:58;0.60;99.90
75262;DHT22;63859;51.064;4.580;2023-01-25T09:10:24;0.70;99.90
75262;DHT22;63859;51.064;4.580;2023-01-25T09:12:49;0.70;99.90
75262;DHT22;63859;51.064;4.580;2023-01-25T09:15:15;0.80;99.90
75262;DHT22;63859;51.064;4.580;2023-01-25T09:17:40;0.80;99.90
75262;DHT22;63859;51.064;4.580;2023-01-25T09:20:07;0.70;99.90
75262;DHT22;63859;51.064;4.580;2023-01-25T09:22:33;0.50;99.90
75262;DHT22;63859;51.064;4.580;2023-01-25T09:24:59;0.50;99.90
75262;DHT22;63859;51.064;4.580;2023-01-25T09:27:24;0.40;99.90
75262;DHT22;63859;51.064;4.580;2023-01-25T09:29:50;0.50;99.90
75262;DHT22;63859;51.064;4.580;2023-01-25T09:32:16;0.50;99.90
75262;DHT22;63859;51.064;4.580;2023-01-25T09:34:41;0.50;99.90
75262;DHT22;63859;51.064;4.580;2023-01-25T09:37:07;0.60;99.90
75262;DHT22;63859;51.064;4.580;2023-01-25T09:39:32;0.60;99.90
75262;DHT22;63859;51.064;4.580;2023-01-25T09:47:28;0.80;99.90
75262;DHT22;63859;51.064;4.580;2023-01-25T09:50:33;0.80;99.90
75262;DHT22;63859;51.064;4.580;2023-01-25T09:53:26;0.80;99.90
75262;DHT22;63859;51.064;4.580;2023-01-25T09:55:58;0.80;99.90
75262;DHT22;63859;51.064;4.580;2023-01-25T09:58:37;0.80;99.90
75262;DHT22;63859;51.064;4.580;2023-01-25T10:06:15;0.70;99.90
75262;DHT22;63859;51.064;4.580;2023-01-25T10:08:56;0.60;99.90
75262;DHT22;63859;51.064;4.580;2023-01-25T10:11:30;0.70;99.90
75262;DHT22;63859;51.064;4.580;2023-01-25T10:13:57;0.70;99.90
75262;DHT22;63859;51.064;4.580;2023-01-25T10:19:28;0.60;99.90
75262;DHT22;63859;51.064;4.580;2023-01-25T10:22:14;0.60;99.90
75262;DHT22;63859;51.064;4.580;2023-01-25T10:27:29;0.70;99.90
75262;DHT22;63859;51.064;4.580;2023-01-25T10:30:01;0.70;99.90
75262;DHT22;63859;51.064;4.580;2023-01-25T10:32:28;0.70;99.90
75262;DHT22;63859;51.064;4.580;2023-01-25T10:35:09;0.70;99.90
75262;DHT22;63859;51.064;4.580;2023-01-25T10:37:37;0.70;99.90
75262;DHT22;63859;51.064;4.580;2023-01-25T10:40:16;0.80;99.90
75262;DHT22;63859;51.064;4.580;2023-01-25T10:45:22;0.80;99.90
75262;DHT22;63859;51.064;4.580;2023-01-25T10:47:51;0.80;99.90
75262;DHT22;63859;51.064;4.580;2023-01-25T10:53:26;0.80;99.90
75262;DHT22;63859;51.064;4.580;2023-01-25T10:56:00;0.90;99.90
75262;DHT22;63859;51.064;4.580;2023-01-25T10:58:36;0.90;99.90
75262;DHT22;63859;51.064;4.580;2023-01-25T11:01:24;0.90;99.90
75262;DHT22;63859;51.064;4.580;2023-01-25T11:03:50;0.90;99.90
75262;DHT22;63859;51.064;4.580;2023-01-25T11:06:29;0.80;99.90
75262;DHT22;63859;51.064;4.580;2023-01-25T11:08:55;0.90;99.90
75262;DHT22;63859;51.064;4.580;2023-01-25T11:11:36;0.80;99.90
75262;DHT22;63859;51.064;4.580;2023-01-25T11:14:23;0.80;99.90
75262;DHT22;63859;51.064;4.580;2023-01-25T11:16:51;0.80;99.90
75262;DHT22;63859;51.064;4.580;2023-01-25T11:19:38;0.80;99.90
75262;DHT22;63859;51.064;4.580;2023-01-25T11:22:19;0.70;99.90
75262;DHT22;63859;51.064;4.580;2023-01-25T11:24:45;0.70;99.90
75262;DHT22;63859;51.064;4.580;2023-01-25T11:27:25;0.80;99.90
75262;DHT22;63859;51.064;4.580;2023-01-25T11:30:15;0.60;99.90
75262;DHT22;63859;51.064;4.580;2023-01-25T11:32:41;0.60;99.90
75262;DHT22;63859;51.064;4.580;2023-01-25T11:35:15;0.70;99.90
75262;DHT22;63859;51.064;4.580;2023-01-25T11:38:18;0.60;99.90
75262;DHT22;63859;51.064;4.580;2023-01-25T11:40:50;0.60;99.90
75262;DHT22;63859;51.064;4.580;2023-01-25T11:49:17;0.60;99.90
75262;DHT22;63859;51.064;4.580;2023-01-25T11:51:55;0.70;99.90
75262;DHT22;63859;51.064;4.580;2023-01-25T11:54:33;0.70;99.90
75262;DHT22;63859;51.064;4.580;2023-01-25T11:57:48;0.70;99.90
75262;DHT22;63859;51.064;4.580;2023-01-25T12:00:47;0.70;99.90
75262;DHT22;63859;51.064;4.580;2023-01-25T12:16:57;0.40;99.90
75262;DHT22;63859;51.064;4.580;2023-01-25T12:22:41;0.40;99.90
75262;DHT22;63859;51.064;4.580;2023-01-25T12:25:29;0.40;99.90
75262;DHT22;63859;51.064;4.580;2023-01-25T12:28:14;0.40;99.90
75262;DHT22;63859;51.064;4.580;2023-01-25T12:30:47;0.40;99.90
75262;DHT22;63859;51.064;4.580;2023-01-25T12:33:21;0.50;99.90
75262;DHT22;63859;51.064;4.580;2023-01-25T12:36:00;0.60;99.90
75262;DHT22;63859;51.064;4.580;2023-01-25T12:38:37;0.60;99.90
75262;DHT22;63859;51.064;4.580;2023-01-25T12:44:15;0.60;99.90
75262;DHT22;63859;51.064;4.580;2023-01-25T12:49:27;0.70;99.90
75262;DHT22;63859;51.064;4.580;2023-01-25T12:51:58;0.70;99.90
75262;DHT22;63859;51.064;4.580;2023-01-25T12:54:37;0.60;99.90
75262;DHT22;63859;51.064;4.580;2023-01-25T13:05:40;0.80;99.90
75262;DHT22;63859;51.064;4.580;2023-01-25T13:10:50;0.90;99.90
75262;DHT22;63859;51.064;4.580;2023-01-25T13:13:28;0.90;99.90
75262;DHT22;63859;51.064;4.580;2023-01-25T13:15:54;0.90;99.90
75262;DHT22;63859;51.064;4.580;2023-01-25T13:20:51;0.80;99.90
75262;DHT22;63859;51.064;4.580;2023-01-25T13:23:38;0.70;99.90
75262;DHT22;63859;51.064;4.580;2023-01-25T13:28:49;0.80;99.90
75262;DHT22;63859;51.064;4.580;2023-01-25T13:36:58;0.70;99.90
75262;DHT22;63859;51.064;4.580;2023-01-25T13:41:59;0.70;99.90
75262;DHT22;63859;51.064;4.580;2023-01-25T13:44:27;0.70;99.90
75262;DHT22;63859;51.064;4.580;2023-01-25T13:46:56;0.80;99.90
75262;DHT22;63859;51.064;4.580;2023-01-25T13:49:27;0.80;99.90
75262;DHT22;63859;51.064;4.580;2023-01-25T13:51:56;0.70;99.90
75262;DHT22;63859;51.064;4.580;2023-01-25T13:54:23;0.70;99.90
75262;DHT22;63859;51.064;4.580;2023-01-25T13:57:02;0.70;99.90
75262;DHT22;63859;51.064;4.580;2023-01-25T13:59:28;0.70;99.90
75262;DHT22;63859;51.064;4.580;2023-01-25T14:01:54;0.50;99.90
75262;DHT22;63859;51.064;4.580;2023-01-25T14:04:21;0.40;99.90
75262;DHT22;63859;51.064;4.580;2023-01-25T14:06:47;0.40;99.90
75262;DHT22;63859;51.064;4.580;2023-01-25T14:09:18;0.30;99.90
75262;DHT22;63859;51.064;4.580;2023-01-25T14:11:57;0.50;99.90
75262;DHT22;63859;51.064;4.580;2023-01-25T14:14:32;0.40;99.90
75262;DHT22;63859;51.064;4.580;2023-01-25T14:19:36;0.30;99.90
75262;DHT22;63859;51.064;4.580;2023-01-25T14:27:34;0.30;99.90
75262;DHT22;63859;51.064;4.580;2023-01-25T14:30:00;0.40;99.90
75262;DHT22;63859;51.064;4.580;2023-01-25T14:32:26;0.40;99.90
75262;DHT22;63859;51.064;4.580;2023-01-25T14:34:52;0.40;99.90
75262;DHT22;63859;51.064;4.580;2023-01-25T14:37:20;0.40;99.90
75262;DHT22;63859;51.064;4.580;2023-01-25T14:39:48;0.50;99.90
75262;DHT22;63859;51.064;4.580;2023-01-25T14:42:15;0.50;99.90
75262;DHT22;63859;51.064;4.580;2023-01-25T14:44:41;0.50;99.90
75262;DHT22;63859;51.064;4.580;2023-01-25T14:47:30;0.40;99.90
75262;DHT22;63859;51.064;4.580;2023-01-25T14:50:34;0.40;99.90
75262;DHT22;63859;51.064;4.580;2023-01-25T14:53:07;0.40;99.90
75262;DHT22;63859;51.064;4.580;2023-01-25T14:55:34;0.40;99.90
75262;DHT22;63859;51.064;4.580;2023-01-25T14:58:01;0.50;99.90
75262;DHT22;63859;51.064;4.580;2023-01-25T15:00:28;0.50;99.90
75262;DHT22;63859;51.064;4.580;2023-01-25T15:02:59;0.50;99.90
75262;DHT22;63859;51.064;4.580;2023-01-25T15:05:30;0.50;99.90
75262;DHT22;63859;51.064;4.580;2023-01-25T15:10:33;0.40;99.90
75262;DHT22;63859;51.064;4.580;2023-01-25T15:13:25;0.40;99.90
75262;DHT22;63859;51.064;4.580;2023-01-25T15:15:56;0.50;99.90
75262;DHT22;63859;51.064;4.580;2023-01-25T15:21:12;0.30;99.90
75262;DHT22;63859;51.064;4.580;2023-01-25T15:23:40;0.30;99.90
75262;DHT22;63859;51.064;4.580;2023-01-25T15:26:24;0.30;99.90
75262;DHT22;63859;51.064;4.580;2023-01-25T15:28:52;0.30;99.90
75262;DHT22;63859;51.064;4.580;2023-01-25T15:31:24;0.20;99.90
75262;DHT22;63859;51.064;4.580;2023-01-25T15:33:50;0.20;99.90
75262;DHT22;63859;51.064;4.580;2023-01-25T15:36:16;0.10;99.90
75262;DHT22;63859;51.064;4.580;2023-01-25T15:38:44;0.10;99.90
75262;DHT22;63859;51.064;4.580;2023-01-25T15:41:09;0.00;99.90
75262;DHT22;63859;51.064;4.580;2023-01-25T15:43:36;0.10;99.90
75262;DHT22;63859;51.064;4.580;2023-01-25T15:46:04;0.10;99.90
75262;DHT22;63859;51.064;4.580;2023-01-25T15:48:33;0.10;99.90
75262;DHT22;63859;51.064;4.580;2023-01-25T15:51:00;0.10;99.90
75262;DHT22;63859;51.064;4.580;2023-01-25T15:53:26;0.10;99.90
75262;DHT22;63859;51.064;4.580;2023-01-25T15:55:56;0.00;99.90
75262;DHT22;63859;51.064;4.580;2023-01-25T15:58:26;0.00;99.90
75262;DHT22;63859;51.064;4.580;2023-01-25T16:00:52;0.00;99.90
75262;DHT22;63859;51.064;4.580;2023-01-25T16:03:18;-0.10;99.90
75262;DHT22;63859;51.064;4.580;2023-01-25T16:05:48;-0.10;99.90
75262;DHT22;63859;51.064;4.580;2023-01-25T16:08:16;-0.10;99.90
75262;DHT22;63859;51.064;4.580;2023-01-25T16:10:42;-0.20;99.90
75262;DHT22;63859;51.064;4.580;2023-01-25T16:13:09;-0.20;99.90
75262;DHT22;63859;51.064;4.580;2023-01-25T16:15:36;-0.20;99.90
75262;DHT22;63859;51.064;4.580;2023-01-25T16:18:02;-0.20;99.90
75262;DHT22;63859;51.064;4.580;2023-01-25T16:20:28;-0.20;99.90
75262;DHT22;63859;51.064;4.580;2023-01-25T16:22:53;-0.20;99.90
75262;DHT22;63859;51.064;4.580;2023-01-25T16:25:20;-0.10;99.90
75262;DHT22;63859;51.064;4.580;2023-01-25T16:27:46;-0.20;99.90
75262;DHT22;63859;51.064;4.580;2023-01-25T16:30:19;-0.20;99.90
75262;DHT22;63859;51.064;4.580;2023-01-25T16:32:45;-0.20;99.90
75262;DHT22;63859;51.064;4.580;2023-01-25T16:35:11;-0.30;99.90
75262;DHT22;63859;51.064;4.580;2023-01-25T16:37:37;-0.30;99.90
75262;DHT22;63859;51.064;4.580;2023-01-25T16:40:03;-0.30;99.90
75262;DHT22;63859;51.064;4.580;2023-01-25T16:42:28;-0.40;99.90
75262;DHT22;63859;51.064;4.580;2023-01-25T16:44:54;-0.40;99.90
75262;DHT22;63859;51.064;4.580;2023-01-25T16:47:20;-0.40;99.90
75262;DHT22;63859;51.064;4.580;2023-01-25T16:49:45;-0.40;99.90
75262;DHT22;63859;51.064;4.580;2023-01-25T16:52:11;-0.40;99.90
75262;DHT22;63859;51.064;4.580;2023-01-25T16:54:36;-0.40;99.90
75262;DHT22;63859;51.064;4.580;2023-01-25T16:57:02;-0.40;99.90
75262;DHT22;63859;51.064;4.580;2023-01-25T16:59:28;-0.30;99.90
75262;DHT22;63859;51.064;4.580;2023-01-25T17:01:53;-0.30;99.90
75262;DHT22;63859;51.064;4.580;2023-01-25T17:04:19;-0.40;99.90
75262;DHT22;63859;51.064;4.580;2023-01-25T17:06:47;-0.30;99.90
75262;DHT22;63859;51.064;4.580;2023-01-25T17:09:15;-0.40;99.90
75262;DHT22;63859;51.064;4.580;2023-01-25T17:11:42;-0.30;99.90
75262;DHT22;63859;51.064;4.580;2023-01-25T17:14:10;-0.30;99.90
75262;DHT22;63859;51.064;4.580;2023-01-25T17:16:37;-0.40;99.90
75262;DHT22;63859;51.064;4.580;2023-01-25T17:19:05;-0.50;99.90
75262;DHT22;63859;51.064;4.580;2023-01-25T17:21:32;-0.50;99.90
75262;DHT22;63859;51.064;4.580;2023-01-25T17:23:59;-0.50;99.90
75262;DHT22;63859;51.064;4.580;2023-01-25T17:26:26;-0.50;99.90
75262;DHT22;63859;51.064;4.580;2023-01-25T17:28:54;-0.40;99.90
75262;DHT22;63859;51.064;4.580;2023-01-25T17:31:22;-0.40;99.90
75262;DHT22;63859;51.064;4.580;2023-01-25T17:33:49;-0.40;99.90
75262;DHT22;63859;51.064;4.580;2023-01-25T17:36:15;-0.40;99.90